Time;durP1;ratioP1;P1;durP2;ratioP2;P2;SDS_P1;SDS_P2;PMS_P1;PMS_P2;Temp;Humidity;BMP_temperature;BMP_pressure;BME280_temperature;BME280_humidity;BME280_pressure;Samples;Min_cycle;Max_cycle;Signal;HPM_P1;HPM_P2
2023/10/26 00:00:17;;;;;;;67.43;23.90;;;10.30;99.90;;;;;;5069658;28;20205;-82
2023/10/26 00:03:15;;;;;;;62.57;23.43;;;10.30;99.90;;;;;;5070190;28;20217;-82
2023/10/26 00:05:57;;;;;;;68.70;22.83;;;10.40;99.90;;;;;;5070319;28;20213;-82
2023/10/26 00:08:30;;;;;;;71.30;25.10;;;10.40;99.90;;;;;;5069829;28;20581;-75
2023/10/26 00:11:11;;;;;;;73.60;24.63;;;10.50;99.90;;;;;;5054511;28;20260;-75
2023/10/26 00:13:39;;;;;;;64.33;24.13;;;10.40;99.90;;;;;;5074013;28;20193;-76
2023/10/26 00:16:12;;;;;;;66.33;24.67;;;10.50;99.90;;;;;;5073947;28;20288;-75
2023/10/26 00:18:46;;;;;;;77.00;24.80;;;10.50;99.90;;;;;;5073333;28;20217;-75
2023/10/26 00:21:36;;;;;;;70.70;25.53;;;10.50;99.90;;;;;;5074646;28;20255;-82
2023/10/26 00:24:12;;;;;;;70.03;24.70;;;10.50;99.90;;;;;;5072885;28;20273;-75
2023/10/26 00:26:58;;;;;;;64.20;24.30;;;10.60;99.90;;;;;;5072497;28;20240;-75
2023/10/26 00:29:51;;;;;;;62.63;22.97;;;10.50;99.90;;;;;;5072785;28;20279;-76
2023/10/26 00:32:27;;;;;;;65.37;24.53;;;10.60;99.90;;;;;;5072564;28;20248;-75
2023/10/26 00:35:00;;;;;;;64.13;24.40;;;10.60;99.90;;;;;;5073542;28;20198;-82
2023/10/26 00:37:33;;;;;;;62.23;24.30;;;10.60;99.90;;;;;;5073518;28;20194;-75
2023/10/26 00:40:02;;;;;;;68.60;24.03;;;10.60;99.90;;;;;;5072540;28;20216;-77
2023/10/26 00:42:34;;;;;;;60.93;23.33;;;10.60;99.90;;;;;;5072993;28;20269;-81
2023/10/26 00:45:05;;;;;;;66.07;24.83;;;10.70;99.90;;;;;;5073235;28;20238;-76
2023/10/26 00:47:43;;;;;;;58.87;23.33;;;10.60;99.90;;;;;;5073216;28;20221;-83
2023/10/26 00:50:22;;;;;;;62.77;23.50;;;10.50;99.90;;;;;;5072197;28;20224;-83
2023/10/26 00:52:55;;;;;;;55.70;22.40;;;10.60;99.90;;;;;;5072455;28;20278;-83
2023/10/26 00:55:24;;;;;;;61.97;24.20;;;10.60;99.90;;;;;;5071749;28;20217;-76
2023/10/26 00:58:29;;;;;;;61.00;23.03;;;10.60;99.90;;;;;;5073241;28;20320;-79
2023/10/26 01:00:57;;;;;;;59.10;21.97;;;10.60;99.90;;;;;;5072049;28;20730;-77
2023/10/26 01:03:36;;;;;;;57.47;22.97;;;10.70;99.90;;;;;;5072180;28;20579;-77
2023/10/26 01:06:13;;;;;;;55.03;22.00;;;10.80;99.90;;;;;;5072939;28;20554;-81
2023/10/26 01:08:50;;;;;;;55.13;23.10;;;10.70;99.90;;;;;;5073151;28;20208;-76
2023/10/26 01:11:24;;;;;;;55.50;23.20;;;10.70;99.90;;;;;;5065423;28;20183;-83
2023/10/26 01:13:59;;;;;;;51.47;20.83;;;10.80;99.90;;;;;;5073209;28;20179;-83
2023/10/26 01:16:30;;;;;;;52.03;21.87;;;10.70;99.90;;;;;;5072240;28;20213;-83
2023/10/26 01:19:06;;;;;;;48.93;21.73;;;10.80;99.90;;;;;;5072189;28;20206;-83
2023/10/26 01:22:01;;;;;;;53.63;21.93;;;10.70;99.90;;;;;;5072090;28;20294;-76
2023/10/26 01:24:32;;;;;;;50.90;21.90;;;10.70;99.90;;;;;;5072135;28;20186;-77
2023/10/26 01:27:09;;;;;;;48.43;20.90;;;10.70;99.90;;;;;;5073076;28;20288;-77
2023/10/26 01:29:51;;;;;;;46.93;21.27;;;10.60;99.90;;;;;;5056312;28;20182;-76
2023/10/26 01:32:22;;;;;;;48.30;21.37;;;10.50;99.90;;;;;;5071783;28;20186;-75
2023/10/26 01:34:56;;;;;;;49.70;20.90;;;10.50;99.90;;;;;;5072681;28;20272;-76
2023/10/26 01:37:26;;;;;;;47.17;20.17;;;10.40;99.90;;;;;;5071327;28;20189;-76
2023/10/26 01:40:18;;;;;;;52.57;22.27;;;10.40;99.90;;;;;;5073252;28;20252;-76
2023/10/26 01:42:55;;;;;;;50.33;20.33;;;10.40;99.90;;;;;;5055244;28;20194;-76
2023/10/26 01:45:28;;;;;;;54.13;21.37;;;10.30;99.90;;;;;;5071482;28;20198;-82
2023/10/26 01:47:55;;;;;;;48.37;21.47;;;10.30;99.90;;;;;;5071264;28;20244;-75
2023/10/26 01:50:41;;;;;;;47.97;20.90;;;10.40;99.90;;;;;;5072784;28;20277;-76
2023/10/26 01:53:26;;;;;;;45.83;21.33;;;10.30;99.90;;;;;;5055133;28;20198;-76
2023/10/26 01:55:57;;;;;;;47.67;21.23;;;10.30;99.90;;;;;;5070907;28;20190;-76
2023/10/26 01:58:29;;;;;;;45.30;19.73;;;10.20;99.90;;;;;;5070890;28;20276;-76
2023/10/26 02:01:05;;;;;;;43.60;19.47;;;10.20;99.90;;;;;;5071185;28;20716;-83
2023/10/26 02:03:43;;;;;;;45.13;20.17;;;10.20;99.90;;;;;;5070917;28;20217;-82
2023/10/26 02:06:21;;;;;;;46.00;19.57;;;10.30;99.90;;;;;;5072200;28;20214;-75
2023/10/26 02:09:02;;;;;;;46.27;19.40;;;10.20;99.90;;;;;;5071949;28;20264;-83
2023/10/26 02:11:45;;;;;;;41.40;19.57;;;10.10;99.90;;;;;;5070698;28;20193;-80
2023/10/26 02:14:19;;;;;;;43.50;19.47;;;10.10;99.90;;;;;;5070976;28;20197;-76
2023/10/26 02:16:52;;;;;;;41.50;19.17;;;10.00;99.90;;;;;;5072698;28;20200;-76
2023/10/26 02:19:22;;;;;;;44.40;20.03;;;10.10;99.90;;;;;;5070479;28;20297;-81
2023/10/26 02:21:56;;;;;;;38.80;18.67;;;10.00;99.90;;;;;;5070870;28;20190;-76
2023/10/26 02:24:37;;;;;;;49.70;20.40;;;10.00;99.90;;;;;;5054867;28;20519;-77
2023/10/26 02:27:11;;;;;;;46.30;19.73;;;9.90;99.90;;;;;;5070506;28;20278;-82
2023/10/26 02:29:51;;;;;;;45.77;20.50;;;9.90;99.90;;;;;;5071306;28;20190;-81
2023/10/26 02:32:27;;;;;;;46.10;20.13;;;9.80;99.90;;;;;;5070299;28;20339;-77
2023/10/26 02:35:00;;;;;;;43.53;20.27;;;9.70;99.90;;;;;;5069777;28;20213;-77
2023/10/26 02:37:38;;;;;;;42.83;20.23;;;9.90;99.90;;;;;;5053526;28;20637;-76
2023/10/26 02:40:11;;;;;;;44.63;20.37;;;9.90;99.90;;;;;;5053348;28;20278;-77
2023/10/26 02:42:43;;;;;;;38.23;19.07;;;9.70;99.90;;;;;;5070500;28;20316;-76
2023/10/26 02:45:14;;;;;;;40.63;19.70;;;9.70;99.90;;;;;;5070546;28;20263;-75
2023/10/26 02:47:45;;;;;;;42.30;20.03;;;9.70;99.90;;;;;;5070775;28;20275;-76
2023/10/26 02:50:27;;;;;;;40.97;19.63;;;9.70;99.90;;;;;;5053825;28;20204;-77
2023/10/26 02:53:09;;;;;;;40.20;18.83;;;9.60;99.90;;;;;;5071273;28;20198;-82
2023/10/26 02:55:57;;;;;;;43.60;19.40;;;9.50;99.90;;;;;;5070383;28;20563;-75
2023/10/26 02:58:34;;;;;;;40.97;19.67;;;9.50;99.90;;;;;;5070414;28;20264;-76
2023/10/26 03:01:04;;;;;;;42.30;19.67;;;9.50;99.90;;;;;;5070111;28;20543;-77
2023/10/26 03:03:38;;;;;;;39.57;19.03;;;9.40;99.90;;;;;;5069750;28;20258;-82
2023/10/26 03:06:09;;;;;;;44.43;20.43;;;9.40;99.90;;;;;;5070072;28;20257;-76
2023/10/26 03:08:47;;;;;;;45.90;20.70;;;9.40;99.90;;;;;;5070520;28;20262;-75
2023/10/26 03:11:25;;;;;;;38.47;20.50;;;9.40;99.90;;;;;;5069864;28;20278;-82
2023/10/26 03:14:00;;;;;;;43.60;20.57;;;9.40;99.90;;;;;;5070484;28;20214;-75
2023/10/26 03:16:40;;;;;;;39.47;20.03;;;9.40;99.90;;;;;;5069651;28;20221;-77
2023/10/26 03:19:20;;;;;;;39.17;19.73;;;9.40;99.90;;;;;;5070125;28;20620;-82
2023/10/26 03:21:48;;;;;;;46.77;21.17;;;9.30;99.90;;;;;;5069133;28;20220;-75
2023/10/26 03:24:24;;;;;;;42.57;19.87;;;9.40;99.90;;;;;;5071154;28;20645;-76
2023/10/26 03:27:08;;;;;;;38.73;19.47;;;9.30;99.90;;;;;;5069891;28;20263;-76
2023/10/26 03:29:45;;;;;;;38.23;19.17;;;9.30;99.90;;;;;;5071515;28;20205;-78
2023/10/26 03:32:29;;;;;;;40.03;19.30;;;9.30;99.90;;;;;;5071240;28;20197;-77
2023/10/26 03:35:03;;;;;;;39.67;19.73;;;9.40;99.90;;;;;;5071714;28;20281;-76
2023/10/26 03:37:55;;;;;;;39.53;19.33;;;9.30;99.90;;;;;;5071059;28;20170;-77
2023/10/26 03:40:30;;;;;;;36.60;19.57;;;9.30;99.90;;;;;;5052872;28;20289;-75
2023/10/26 03:43:04;;;;;;;36.43;19.23;;;9.20;99.90;;;;;;5070370;28;20233;-76
2023/10/26 03:45:32;;;;;;;38.87;19.53;;;9.20;99.90;;;;;;5070859;28;20186;-76
2023/10/26 03:48:04;;;;;;;39.77;19.40;;;9.20;99.90;;;;;;5072985;28;20234;-76
2023/10/26 03:50:43;;;;;;;36.77;18.67;;;9.20;99.90;;;;;;5073518;28;20189;-75
2023/10/26 03:53:20;;;;;;;36.47;18.17;;;9.20;99.90;;;;;;5055863;28;20688;-83
2023/10/26 03:56:04;;;;;;;35.77;18.63;;;9.20;99.90;;;;;;5073484;28;20664;-81
2023/10/26 03:58:37;;;;;;;37.17;18.93;;;9.30;99.90;;;;;;5074239;28;20600;-82
2023/10/26 04:01:17;;;;;;;38.10;18.60;;;9.20;99.90;;;;;;5072831;28;20244;-82
2023/10/26 04:03:47;;;;;;;35.30;18.40;;;9.20;99.90;;;;;;5055412;28;20224;-82
2023/10/26 04:06:21;;;;;;;36.00;19.50;;;9.20;99.90;;;;;;5072573;28;20244;-75
2023/10/26 04:08:57;;;;;;;34.77;18.17;;;9.20;99.90;;;;;;5073241;28;20201;-75
2023/10/26 04:11:30;;;;;;;33.03;17.70;;;9.20;99.90;;;;;;5072475;28;20200;-75
2023/10/26 04:14:10;;;;;;;36.30;18.47;;;9.10;99.90;;;;;;5072406;28;20256;-75
2023/10/26 04:16:39;;;;;;;30.27;17.43;;;9.10;99.90;;;;;;5073862;28;20214;-77
2023/10/26 04:19:13;;;;;;;32.33;17.20;;;9.20;99.90;;;;;;5073880;28;20220;-76
2023/10/26 04:21:45;;;;;;;33.00;17.50;;;9.10;99.90;;;;;;5074060;28;20279;-76
2023/10/26 04:24:13;;;;;;;31.63;16.93;;;9.10;99.90;;;;;;5072989;28;20197;-76
2023/10/26 04:26:47;;;;;;;32.67;17.00;;;9.10;99.90;;;;;;5072953;28;20237;-82
2023/10/26 04:29:22;;;;;;;36.20;18.50;;;9.10;99.90;;;;;;5055148;28;20386;-82
2023/10/26 04:31:55;;;;;;;33.27;17.60;;;9.00;99.90;;;;;;5056566;28;20204;-81
2023/10/26 04:34:45;;;;;;;35.93;18.40;;;9.00;99.90;;;;;;5072679;28;20194;-77
2023/10/26 04:37:27;;;;;;;39.03;18.90;;;9.10;99.90;;;;;;5057613;28;20540;-76
2023/10/26 04:40:01;;;;;;;34.27;17.53;;;9.10;99.90;;;;;;5072868;28;20194;-76
2023/10/26 04:42:52;;;;;;;36.73;18.77;;;9.10;99.90;;;;;;5070346;28;20201;-76
2023/10/26 04:45:27;;;;;;;37.30;18.33;;;9.10;99.90;;;;;;5073368;28;20225;-76
2023/10/26 04:48:01;;;;;;;36.63;19.07;;;9.10;99.90;;;;;;5072221;28;20228;-76
2023/10/26 04:50:46;;;;;;;39.07;19.83;;;9.30;99.90;;;;;;5073773;28;20197;-82
2023/10/26 04:53:23;;;;;;;39.73;19.37;;;9.20;99.90;;;;;;5057138;28;20660;-75
2023/10/26 04:56:06;;;;;;;45.07;22.17;;;9.30;99.90;;;;;;5055260;28;20211;-82
2023/10/26 04:58:38;;;;;;;41.73;20.30;;;9.30;99.90;;;;;;5071821;28;20193;-77
2023/10/26 05:01:11;;;;;;;40.63;19.97;;;9.40;99.90;;;;;;5072077;28;20239;-77
2023/10/26 05:03:56;;;;;;;34.70;18.90;;;9.40;99.90;;;;;;5056182;28;20208;-82
2023/10/26 05:06:35;;;;;;;38.53;19.60;;;9.40;99.90;;;;;;5072373;28;20205;-75
2023/10/26 05:09:05;;;;;;;43.90;20.07;;;9.60;99.90;;;;;;5071961;28;20272;-82
2023/10/26 05:11:46;;;;;;;37.80;19.80;;;9.60;99.90;;;;;;5072144;28;20209;-77
2023/10/26 05:14:29;;;;;;;35.63;19.30;;;9.60;99.90;;;;;;5054189;28;20225;-78
2023/10/26 05:17:11;;;;;;;34.40;18.47;;;9.50;99.90;;;;;;5072753;28;20528;-77
2023/10/26 05:19:48;;;;;;;39.00;19.50;;;9.70;99.90;;;;;;5073645;28;20204;-77
2023/10/26 05:22:29;;;;;;;36.60;19.93;;;9.70;99.90;;;;;;5072688;28;20278;-78
2023/10/26 05:25:05;;;;;;;35.13;18.13;;;9.80;99.90;;;;;;5072534;28;20739;-76
2023/10/26 05:27:37;;;;;;;35.10;18.37;;;9.80;99.90;;;;;;5054276;28;20517;-76
2023/10/26 05:30:08;;;;;;;41.87;18.87;;;9.80;99.90;;;;;;5072641;28;20213;-82
2023/10/26 05:32:43;;;;;;;37.00;19.73;;;9.90;99.90;;;;;;5054594;28;20676;-82
2023/10/26 05:35:13;;;;;;;37.53;19.70;;;9.90;99.90;;;;;;5073132;28;20174;-79
2023/10/26 05:37:43;;;;;;;42.70;20.10;;;10.00;99.90;;;;;;5072295;28;20240;-78
2023/10/26 05:40:13;;;;;;;40.07;19.60;;;9.90;99.90;;;;;;5072883;28;20511;-81
2023/10/26 05:42:50;;;;;;;43.80;20.93;;;9.90;99.90;;;;;;5072863;28;20598;-76
2023/10/26 05:45:37;;;;;;;36.87;19.07;;;9.80;99.90;;;;;;5071775;28;20190;-76
2023/10/26 05:48:10;;;;;;;40.03;19.33;;;9.90;99.90;;;;;;5055518;28;20246;-76
2023/10/26 05:50:45;;;;;;;44.07;19.40;;;9.90;99.90;;;;;;5071832;28;20582;-82
2023/10/26 05:53:19;;;;;;;39.87;19.47;;;9.90;99.90;;;;;;5054922;28;20558;-82
2023/10/26 05:55:59;;;;;;;36.60;19.17;;;10.00;99.90;;;;;;5072461;28;20231;-83
2023/10/26 05:58:30;;;;;;;36.30;18.77;;;10.00;99.90;;;;;;5071678;28;20182;-75
2023/10/26 06:01:04;;;;;;;34.90;18.97;;;10.10;99.90;;;;;;5072069;28;20178;-76
2023/10/26 06:03:34;;;;;;;33.63;17.20;;;10.00;99.90;;;;;;5072328;28;20210;-85
2023/10/26 06:06:08;;;;;;;34.80;19.00;;;10.00;99.90;;;;;;5055497;28;20263;-78
2023/10/26 06:08:39;;;;;;;31.43;17.93;;;10.00;99.90;;;;;;5052903;28;20228;-77
2023/10/26 06:11:16;;;;;;;32.70;17.90;;;10.20;99.90;;;;;;5070783;28;20203;-79
2023/10/26 06:13:48;;;;;;;32.30;17.37;;;10.10;99.90;;;;;;5054918;28;20272;-83
2023/10/26 06:16:16;;;;;;;36.80;18.23;;;10.30;99.90;;;;;;5053737;28;20178;-82
2023/10/26 06:18:49;;;;;;;31.13;17.60;;;10.10;99.90;;;;;;5072659;28;20221;-82
2023/10/26 06:21:21;;;;;;;31.20;18.10;;;10.10;99.90;;;;;;5037237;28;20660;-84
2023/10/26 06:23:54;;;;;;;34.93;17.80;;;10.10;99.90;;;;;;5071928;28;20197;-79
2023/10/26 06:26:25;;;;;;;34.33;18.93;;;10.20;99.90;;;;;;5070113;28;20318;-77
2023/10/26 06:29:01;;;;;;;40.37;18.93;;;10.10;99.90;;;;;;5070580;28;20206;-77
2023/10/26 06:31:39;;;;;;;33.43;18.80;;;10.10;99.90;;;;;;5070895;28;20171;-77
2023/10/26 06:34:10;;;;;;;32.33;18.97;;;10.20;99.90;;;;;;5071969;28;20202;-77
2023/10/26 06:36:41;;;;;;;37.47;20.20;;;10.10;99.90;;;;;;5070274;28;20248;-85
2023/10/26 06:39:14;;;;;;;31.97;18.33;;;10.10;99.90;;;;;;5072488;28;20277;-85
2023/10/26 06:41:53;;;;;;;31.57;19.47;;;10.20;99.90;;;;;;5038240;28;20666;-78
2023/10/26 06:44:27;;;;;;;32.77;19.30;;;10.20;99.90;;;;;;5071131;28;20633;-79
2023/10/26 06:47:01;;;;;;;32.63;19.77;;;10.20;99.90;;;;;;5070014;28;20601;-78
2023/10/26 06:53:06;;;;;;;33.67;20.73;;;10.30;99.90;;;;;;4927112;29;20255;-77
2023/10/26 06:55:44;;;;;;;32.80;20.43;;;10.20;99.90;;;;;;4930251;29;20226;-78
2023/10/26 06:58:18;;;;;;;36.77;20.93;;;10.10;99.90;;;;;;4930268;29;20206;-77
2023/10/26 07:00:46;;;;;;;35.30;20.77;;;10.20;99.90;;;;;;4930101;29;20225;-75
2023/10/26 07:03:22;;;;;;;36.17;21.57;;;10.30;99.90;;;;;;4930967;29;20227;-75
2023/10/26 07:05:59;;;;;;;39.10;21.53;;;10.20;99.90;;;;;;4931522;29;20195;-77
2023/10/26 07:08:42;;;;;;;35.67;22.13;;;10.30;99.90;;;;;;4943239;29;20338;-79
2023/10/26 07:11:15;;;;;;;36.93;22.03;;;10.30;99.90;;;;;;4927732;29;20207;-83
2023/10/26 07:13:44;;;;;;;38.10;21.73;;;10.20;99.90;;;;;;4932008;29;20194;-78
2023/10/26 07:16:12;;;;;;;36.63;22.77;;;10.30;99.90;;;;;;4946676;29;20259;-76
2023/10/26 07:18:47;;;;;;;34.67;22.67;;;10.30;99.90;;;;;;4930909;29;20364;-77
2023/10/26 07:21:16;;;;;;;38.67;23.00;;;10.20;99.90;;;;;;4925863;29;20207;-78
2023/10/26 07:24:10;;;;;;;37.83;23.70;;;10.20;99.90;;;;;;4931839;29;20210;-81
2023/10/26 07:26:40;;;;;;;38.30;24.27;;;10.30;99.90;;;;;;4947083;28;20314;-79
2023/10/26 07:29:11;;;;;;;38.37;24.33;;;10.30;99.90;;;;;;4965403;28;20712;-78
2023/10/26 07:32:16;;;;;;;36.53;23.60;;;10.40;99.90;;;;;;5025419;28;20218;-79
2023/10/26 07:35:05;;;;;;;41.47;25.07;;;10.40;99.90;;;;;;5049334;28;20270;-76
2023/10/26 07:37:37;;;;;;;41.87;25.20;;;10.40;99.90;;;;;;5048191;28;20197;-77
2023/10/26 07:40:07;;;;;;;41.17;24.83;;;10.40;99.90;;;;;;5048886;28;20206;-76
2023/10/26 07:43:02;;;;;;;37.80;23.97;;;10.50;99.90;;;;;;5035770;28;20623;-78
2023/10/26 07:45:42;;;;;;;47.20;25.43;;;10.40;99.90;;;;;;5049947;28;20241;-75
2023/10/26 07:51:38;;;;;;;64.97;27.43;;;10.60;99.90;;;;;;5014266;28;20210;-78
2023/10/26 07:54:44;;;;;;;40.20;23.83;;;10.60;99.90;;;;;;5052733;28;20590;-77
2023/10/26 07:57:20;;;;;;;39.20;23.27;;;10.70;99.90;;;;;;5021648;28;20199;-77
2023/10/26 08:00:12;;;;;;;43.23;23.30;;;10.70;99.90;;;;;;5050569;28;20194;-77
2023/10/26 08:02:53;;;;;;;33.40;22.57;;;10.80;99.90;;;;;;5047018;28;20269;-77
2023/10/26 08:05:43;;;;;;;35.47;22.33;;;10.90;99.90;;;;;;5014677;28;20254;-76
2023/10/26 08:08:29;;;;;;;35.77;21.43;;;10.80;99.90;;;;;;5031011;28;20225;-76
2023/10/26 08:11:13;;;;;;;35.90;21.77;;;10.80;99.90;;;;;;5042732;28;20337;-76
2023/10/26 08:13:44;;;;;;;34.37;20.73;;;10.70;99.90;;;;;;5031064;28;20195;-76
2023/10/26 08:16:16;;;;;;;37.53;22.57;;;10.80;99.90;;;;;;5031944;28;20203;-76
2023/10/26 08:19:05;;;;;;;38.80;22.60;;;10.90;99.90;;;;;;5050802;28;20582;-77
2023/10/26 08:21:39;;;;;;;37.27;21.70;;;10.90;99.90;;;;;;5049073;28;20183;-77
2023/10/26 08:24:10;;;;;;;37.13;22.07;;;11.00;99.90;;;;;;5033400;28;20193;-77
2023/10/26 08:26:43;;;;;;;37.00;21.83;;;11.00;99.90;;;;;;5068616;28;20562;-78
2023/10/26 08:29:20;;;;;;;36.60;22.63;;;11.00;99.90;;;;;;5070460;28;20291;-78
2023/10/26 08:32:03;;;;;;;36.33;21.10;;;11.00;99.90;;;;;;5071038;28;20205;-81
2023/10/26 08:34:35;;;;;;;37.50;21.80;;;11.00;99.90;;;;;;5074446;28;20289;-81
2023/10/26 08:37:10;;;;;;;36.43;22.07;;;11.00;99.90;;;;;;5057441;28;20201;-78
2023/10/26 08:39:43;;;;;;;38.17;21.77;;;11.10;99.90;;;;;;5074759;28;20204;-76
2023/10/26 08:42:32;;;;;;;42.67;22.33;;;11.10;99.90;;;;;;5074049;28;20551;-80
2023/10/26 08:45:27;;;;;;;33.93;20.37;;;11.10;99.90;;;;;;5056174;28;20842;-85
2023/10/26 08:50:58;;;;;;;39.00;21.37;;;11.10;99.90;;;;;;5072671;28;20182;-86
2023/10/26 08:53:27;;;;;;;30.33;20.17;;;11.10;99.90;;;;;;5056474;28;20596;-76
2023/10/26 08:55:58;;;;;;;36.30;21.07;;;11.10;99.90;;;;;;5072537;28;20197;-77
2023/10/26 08:58:34;;;;;;;36.63;21.40;;;11.10;99.90;;;;;;5056248;28;20295;-78
2023/10/26 09:01:06;;;;;;;34.73;20.37;;;11.00;99.90;;;;;;5071593;28;20572;-76
2023/10/26 09:03:34;;;;;;;32.27;18.60;;;11.00;99.90;;;;;;5072010;28;20202;-76
2023/10/26 09:06:06;;;;;;;39.40;20.30;;;11.00;99.90;;;;;;5072544;28;20599;-79
2023/10/26 09:08:35;;;;;;;39.03;19.90;;;11.10;99.90;;;;;;5072130;28;20206;-79
2023/10/26 09:11:22;;;;;;;34.97;19.67;;;11.30;99.90;;;;;;5072563;28;20190;-79
2023/10/26 09:13:50;;;;;;;31.50;18.87;;;11.30;99.90;;;;;;5072887;28;20198;-78
2023/10/26 09:16:40;;;;;;;35.10;18.77;;;11.30;99.90;;;;;;5064864;28;20250;-77
2023/10/26 09:19:11;;;;;;;33.13;18.73;;;11.40;99.90;;;;;;5072763;28;20312;-76
2023/10/26 09:21:56;;;;;;;32.40;19.20;;;11.20;99.90;;;;;;5054171;28;20810;-76
2023/10/26 09:24:32;;;;;;;36.77;19.17;;;11.20;99.90;;;;;;5071200;28;20216;-80
2023/10/26 09:27:03;;;;;;;30.40;18.53;;;11.20;99.90;;;;;;5054276;28;20267;-82
2023/10/26 09:29:47;;;;;;;30.50;17.63;;;11.20;99.90;;;;;;5057987;28;20265;-77
2023/10/26 09:32:17;;;;;;;30.90;17.80;;;11.10;99.90;;;;;;5073185;28;20217;-79
2023/10/26 09:34:51;;;;;;;44.83;19.20;;;11.00;99.90;;;;;;5055502;28;20289;-77
2023/10/26 09:37:27;;;;;;;32.20;18.30;;;10.90;99.90;;;;;;5047667;28;20190;-79
2023/10/26 09:39:59;;;;;;;36.47;17.73;;;11.00;99.90;;;;;;5072481;28;20188;-78
2023/10/26 09:42:52;;;;;;;31.33;18.13;;;11.00;99.90;;;;;;5071942;28;20540;-79
2023/10/26 09:45:25;;;;;;;35.83;18.93;;;10.90;99.90;;;;;;5072012;28;20209;-79
2023/10/26 09:48:02;;;;;;;30.93;19.10;;;10.90;99.90;;;;;;5073163;28;20681;-80
2023/10/26 09:50:52;;;;;;;32.20;17.47;;;10.80;99.90;;;;;;5054324;28;20219;-76
2023/10/26 09:53:35;;;;;;;33.33;18.43;;;10.80;99.90;;;;;;5054241;28;20194;-78
2023/10/26 09:56:34;;;;;;;35.47;17.97;;;10.90;99.90;;;;;;5072824;28;20191;-80
2023/10/26 09:59:10;;;;;;;30.40;18.13;;;10.90;99.90;;;;;;5053867;28;20206;-80
2023/10/26 10:01:55;;;;;;;32.23;18.10;;;11.00;99.90;;;;;;5072895;28;20190;-80
2023/10/26 10:04:39;;;;;;;29.53;18.47;;;10.90;99.90;;;;;;5072670;28;20210;-79
2023/10/26 10:07:06;;;;;;;31.83;19.20;;;11.00;99.90;;;;;;5054369;28;20201;-74
2023/10/26 10:10:06;;;;;;;31.53;19.10;;;11.10;99.90;;;;;;5070719;28;20230;-79
2023/10/26 10:12:52;;;;;;;32.50;18.90;;;11.00;99.90;;;;;;5071596;28;20567;-78
2023/10/26 10:15:52;;;;;;;31.80;18.83;;;10.90;99.90;;;;;;5053394;28;20587;-79
2023/10/26 10:18:23;;;;;;;28.73;17.57;;;11.10;99.90;;;;;;5049947;28;20226;-79
2023/10/26 10:21:01;;;;;;;35.80;19.00;;;11.10;99.90;;;;;;5070837;28;20188;-80
2023/10/26 10:23:54;;;;;;;30.60;18.13;;;11.00;99.90;;;;;;5072541;28;20197;-80
2023/10/26 10:26:27;;;;;;;32.87;19.30;;;11.10;99.90;;;;;;5072293;28;20218;-79
2023/10/26 10:28:56;;;;;;;33.13;18.70;;;11.10;99.90;;;;;;5072438;28;20220;-79
2023/10/26 10:31:40;;;;;;;33.87;19.43;;;11.10;99.90;;;;;;5072534;28;20262;-79
2023/10/26 10:34:17;;;;;;;35.07;18.97;;;11.10;99.90;;;;;;5072151;28;20221;-79
2023/10/26 10:37:21;;;;;;;34.57;18.77;;;11.20;99.90;;;;;;5072168;28;20193;-79
2023/10/26 10:40:14;;;;;;;34.90;19.37;;;11.40;99.90;;;;;;5072537;28;20196;-79
2023/10/26 10:42:52;;;;;;;31.67;18.43;;;11.50;99.90;;;;;;5072479;28;20280;-77
2023/10/26 10:45:22;;;;;;;32.50;18.67;;;11.50;99.90;;;;;;5070899;28;20604;-79
2023/10/26 10:47:53;;;;;;;28.23;17.37;;;11.60;99.90;;;;;;5071314;28;20252;-78
2023/10/26 10:50:30;;;;;;;28.10;17.43;;;11.70;99.90;;;;;;5071412;28;20198;-78
2023/10/26 10:53:16;;;;;;;29.27;17.70;;;11.60;99.90;;;;;;5067708;28;20545;-79
2023/10/26 10:55:48;;;;;;;28.57;17.43;;;11.70;99.90;;;;;;5054440;28;20197;-79
2023/10/26 10:58:36;;;;;;;29.27;17.20;;;11.80;99.90;;;;;;5055313;28;20198;-80
2023/10/26 11:01:11;;;;;;;33.50;17.77;;;11.80;99.90;;;;;;5071882;28;20203;-80
2023/10/26 11:03:38;;;;;;;37.73;17.53;;;11.80;99.90;;;;;;5071457;28;20205;-80
2023/10/26 11:06:13;;;;;;;30.90;18.07;;;11.80;99.90;;;;;;5071404;28;20467;-81
2023/10/26 11:08:54;;;;;;;27.03;17.27;;;11.80;99.90;;;;;;5072069;28;20264;-82
2023/10/26 11:11:27;;;;;;;27.93;18.07;;;11.80;99.90;;;;;;5072241;28;20178;-80
2023/10/26 11:14:18;;;;;;;29.27;17.40;;;11.80;99.90;;;;;;5054792;28;20256;-81
2023/10/26 11:16:54;;;;;;;29.30;18.43;;;11.90;99.90;;;;;;5052989;28;20209;-78
2023/10/26 11:19:38;;;;;;;25.17;16.87;;;11.90;99.90;;;;;;5072129;28;20190;-79
2023/10/26 11:22:11;;;;;;;27.43;17.70;;;11.90;99.90;;;;;;5069321;28;20194;-79
2023/10/26 11:24:45;;;;;;;27.07;16.37;;;12.00;99.90;;;;;;5053652;28;20599;-77
2023/10/26 11:27:21;;;;;;;26.43;17.57;;;12.10;99.90;;;;;;5054376;28;20186;-79
2023/10/26 11:30:04;;;;;;;27.00;17.13;;;12.10;99.90;;;;;;5054164;28;20216;-76
2023/10/26 11:32:34;;;;;;;31.90;17.13;;;12.20;99.90;;;;;;5054576;28;20223;-77
2023/10/26 11:35:11;;;;;;;33.53;17.97;;;12.20;99.90;;;;;;5072127;28;20194;-78
2023/10/26 11:37:54;;;;;;;26.20;16.87;;;12.20;99.90;;;;;;5072168;28;20182;-78
2023/10/26 11:40:32;;;;;;;27.73;17.77;;;12.30;99.90;;;;;;5069956;28;20185;-80
2023/10/26 11:43:11;;;;;;;29.13;17.20;;;12.30;99.90;;;;;;5054975;28;20190;-80
2023/10/26 11:45:48;;;;;;;28.13;17.27;;;12.30;99.90;;;;;;5071720;28;20248;-78
2023/10/26 11:48:33;;;;;;;30.30;17.30;;;12.40;99.90;;;;;;5052709;28;20309;-78
2023/10/26 11:51:09;;;;;;;36.53;17.23;;;12.40;99.90;;;;;;5071005;28;20660;-80
2023/10/26 11:53:41;;;;;;;31.07;16.47;;;12.30;99.90;;;;;;5070684;28;20209;-81
2023/10/26 11:56:18;;;;;;;26.87;16.13;;;12.30;99.90;;;;;;5052931;28;20186;-81
2023/10/26 11:58:47;;;;;;;25.90;16.07;;;12.40;99.90;;;;;;5071103;28;20191;-80
2023/10/26 12:01:37;;;;;;;26.87;16.10;;;12.40;99.90;;;;;;5069467;28;20194;-81
2023/10/26 12:04:16;;;;;;;27.03;15.73;;;12.30;99.90;;;;;;5053632;28;20210;-83
2023/10/26 12:06:45;;;;;;;25.37;15.47;;;12.30;99.90;;;;;;5052890;28;20609;-79
2023/10/26 12:09:33;;;;;;;31.00;16.07;;;12.30;99.90;;;;;;5073043;28;20241;-81
2023/10/26 12:12:08;;;;;;;26.87;16.20;;;12.40;99.90;;;;;;5074407;28;20190;-80
2023/10/26 12:15:10;;;;;;;23.27;15.27;;;12.30;99.90;;;;;;5074072;28;20572;-81
2023/10/26 12:17:43;;;;;;;23.57;15.87;;;12.30;99.90;;;;;;5075176;28;20692;-82
2023/10/26 12:20:17;;;;;;;22.67;15.23;;;12.40;99.90;;;;;;5072354;28;20527;-80
2023/10/26 12:22:47;;;;;;;24.93;16.23;;;12.30;99.90;;;;;;5056906;28;20583;-78
2023/10/26 12:25:15;;;;;;;27.87;16.80;;;12.30;99.90;;;;;;5073354;28;20222;-79
2023/10/26 12:27:46;;;;;;;26.80;16.10;;;12.30;99.90;;;;;;5075014;28;20372;-78
2023/10/26 12:30:39;;;;;;;26.10;16.20;;;12.30;99.90;;;;;;5057243;28;20197;-77
2023/10/26 12:33:09;;;;;;;27.97;16.60;;;12.30;99.90;;;;;;5055686;28;20217;-79
2023/10/26 12:35:43;;;;;;;26.37;16.37;;;12.30;99.90;;;;;;5056659;28;20186;-79
2023/10/26 12:38:11;;;;;;;26.27;16.33;;;12.30;99.90;;;;;;5056835;28;20587;-76
2023/10/26 12:40:39;;;;;;;23.77;15.40;;;12.40;99.90;;;;;;5074802;28;20290;-79
2023/10/26 12:43:06;;;;;;;28.57;15.87;;;12.30;99.90;;;;;;5057450;28;20190;-79
2023/10/26 12:45:35;;;;;;;26.43;16.00;;;12.30;99.90;;;;;;5056136;28;20496;-80
2023/10/26 12:48:04;;;;;;;27.33;15.97;;;12.30;99.90;;;;;;5056660;28;20293;-80
2023/10/26 12:50:32;;;;;;;25.07;15.90;;;12.40;99.90;;;;;;5073965;28;20226;-79
2023/10/26 12:53:03;;;;;;;24.53;15.87;;;12.40;99.90;;;;;;5074641;28;20202;-80
2023/10/26 12:55:34;;;;;;;25.27;16.10;;;12.40;99.90;;;;;;5074520;28;20190;-80
2023/10/26 12:58:08;;;;;;;27.27;16.73;;;12.50;99.90;;;;;;5056187;28;20182;-80
2023/10/26 13:00:39;;;;;;;25.03;15.63;;;12.40;99.90;;;;;;5056863;28;20182;-80
2023/10/26 13:03:07;;;;;;;23.27;14.87;;;12.30;99.90;;;;;;5056529;28;20280;-80
2023/10/26 13:05:37;;;;;;;26.47;14.73;;;12.30;99.90;;;;;;5056912;28;20281;-79
2023/10/26 13:08:13;;;;;;;23.43;14.20;;;12.30;99.90;;;;;;5074520;28;20170;-80
2023/10/26 13:10:43;;;;;;;25.70;15.17;;;12.30;99.90;;;;;;5056051;28;20189;-79
2023/10/26 13:13:16;;;;;;;21.80;14.57;;;12.30;99.90;;;;;;5074403;28;20189;-81
2023/10/26 13:15:44;;;;;;;20.10;13.43;;;12.20;99.90;;;;;;5074913;28;20289;-79
2023/10/26 13:18:21;;;;;;;20.53;13.73;;;12.20;99.90;;;;;;5046124;28;20218;-79
2023/10/26 13:20:49;;;;;;;21.00;13.90;;;12.20;99.90;;;;;;5074181;28;20584;-79
2023/10/26 13:23:18;;;;;;;22.63;13.67;;;12.30;99.90;;;;;;5055662;28;20648;-80
2023/10/26 13:25:49;;;;;;;20.93;13.73;;;12.30;99.90;;;;;;5055278;28;20684;-80
2023/10/26 13:28:40;;;;;;;;;;;;;;;;;;;;;